Time;durP1;ratioP1;P1;durP2;ratioP2;P2;SDS_P1;SDS_P2;PMS_P1;PMS_P2;Temp;Humidity;BMP_temperature;BMP_pressure;BME280_temperature;BME280_humidity;BME280_pressure;Samples;Min_cycle;Max_cycle;Signal;HPM_P1;HPM_P2
2021/12/09 00:01:02;;;;;;;4.35;2.10;;;13.60;46.30;;;;;;5128561;28;20044;-62
2021/12/09 00:03:31;;;;;;;3.08;1.20;;;13.60;46.30;;;;;;5128539;28;20046;-63
2021/12/09 00:05:58;;;;;;;2.10;1.13;;;13.60;46.30;;;;;;5128432;28;20050;-63
2021/12/09 00:08:27;;;;;;;4.55;1.42;;;13.60;46.20;;;;;;5129741;27;20044;-62
2021/12/09 00:10:56;;;;;;;3.03;1.33;;;13.60;46.20;;;;;;5129817;27;20452;-62
2021/12/09 00:13:22;;;;;;;2.33;1.20;;;13.50;46.30;;;;;;5128660;28;20433;-62
2021/12/09 00:15:49;;;;;;;4.50;1.20;;;13.60;46.30;;;;;;5129864;27;20031;-62
2021/12/09 00:18:16;;;;;;;4.43;1.42;;;13.50;46.30;;;;;;5128223;28;20039;-62
2021/12/09 00:20:42;;;;;;;4.35;1.52;;;13.50;46.30;;;;;;5128261;28;20526;-63
2021/12/09 00:23:08;;;;;;;3.00;1.25;;;13.50;46.30;;;;;;5129516;27;20050;-62
2021/12/09 00:25:35;;;;;;;2.85;1.27;;;13.50;46.20;;;;;;5128128;28;20038;-62
2021/12/09 00:28:01;;;;;;;2.83;1.20;;;13.50;46.20;;;;;;5128013;28;20051;-62
2021/12/09 00:30:29;;;;;;;3.53;1.30;;;13.50;46.30;;;;;;5128254;28;20054;-63
2021/12/09 00:32:55;;;;;;;4.38;1.60;;;13.50;46.40;;;;;;5128126;28;20039;-63
2021/12/09 00:35:27;;;;;;;2.92;1.58;;;13.50;46.40;;;;;;5127940;28;20114;-63
2021/12/09 00:37:59;;;;;;;2.65;1.27;;;13.50;46.40;;;;;;5127983;28;20148;-62
2021/12/09 00:40:24;;;;;;;6.13;1.67;;;13.50;46.40;;;;;;5127469;28;20193;-62
2021/12/09 00:42:50;;;;;;;2.15;1.33;;;13.50;46.30;;;;;;5128056;28;20122;-62
2021/12/09 00:45:21;;;;;;;2.03;1.27;;;13.50;46.30;;;;;;5128958;28;20465;-63
2021/12/09 00:47:47;;;;;;;;;;;13.50;46.30;;;;;;5129762;27;20053;-62
2021/12/09 00:50:13;;;;;;;2.08;1.08;;;13.50;46.30;;;;;;5127430;28;19916;-62
2021/12/09 00:52:39;;;;;;;2.63;0.90;;;13.50;46.30;;;;;;5113860;28;20038;-64
2021/12/09 00:55:07;;;;;;;3.10;1.50;;;13.40;46.40;;;;;;5113836;28;20145;-63
2021/12/09 00:57:34;;;;;;;2.70;1.42;;;13.40;46.40;;;;;;5113962;28;20051;-63
2021/12/09 01:00:00;;;;;;;5.38;1.42;;;13.50;46.50;;;;;;5115150;28;20045;-63
2021/12/09 01:02:26;;;;;;;3.17;1.15;;;13.40;46.40;;;;;;5115360;28;20047;-63
2021/12/09 01:04:52;;;;;;;3.80;1.60;;;13.40;46.40;;;;;;5115076;28;20040;-63
2021/12/09 01:07:17;;;;;;;3.22;1.27;;;13.50;46.40;;;;;;5115029;28;20040;-62
2021/12/09 01:09:44;;;;;;;4.45;1.27;;;13.40;46.40;;;;;;5114850;27;20092;-62
2021/12/09 01:12:10;;;;;;;4.07;1.50;;;13.40;46.40;;;;;;5115048;28;20035;-62
2021/12/09 01:14:37;;;;;;;3.55;1.10;;;13.40;46.40;;;;;;5114792;28;20038;-63
2021/12/09 01:17:08;;;;;;;2.90;1.00;;;13.40;46.40;;;;;;5113536;28;20536;-62
2021/12/09 01:19:35;;;;;;;3.63;1.38;;;13.40;46.40;;;;;;5114594;28;20071;-62
2021/12/09 01:22:01;;;;;;;3.67;1.02;;;13.40;46.40;;;;;;5113415;28;20052;-63
2021/12/09 01:24:27;;;;;;;5.72;1.08;;;13.30;46.40;;;;;;5114581;28;20325;-63
2021/12/09 01:26:52;;;;;;;3.38;1.55;;;13.30;46.30;;;;;;5113273;28;20042;-62
2021/12/09 01:29:27;;;;;;;4.57;1.33;;;13.40;46.40;;;;;;5114610;28;20043;-62
2021/12/09 01:31:59;;;;;;;2.53;1.13;;;13.40;46.40;;;;;;5113262;28;20075;-63
2021/12/09 01:34:25;;;;;;;2.70;1.23;;;13.30;46.30;;;;;;5114559;27;20035;-62
2021/12/09 01:36:51;;;;;;;5.88;1.42;;;13.30;46.30;;;;;;5113277;28;20035;-63
2021/12/09 01:39:18;;;;;;;4.35;1.77;;;13.30;46.40;;;;;;5114223;28;20058;-62
2021/12/09 01:41:44;;;;;;;2.58;1.52;;;13.30;46.40;;;;;;5114284;28;20046;-63
2021/12/09 01:44:10;;;;;;;4.15;1.30;;;13.30;46.30;;;;;;5113261;28;20053;-63
2021/12/09 01:46:36;;;;;;;3.60;1.33;;;13.40;46.10;;;;;;5114277;28;20035;-63
2021/12/09 01:49:03;;;;;;;2.80;1.10;;;13.60;46.00;;;;;;5108759;28;20036;-63
2021/12/09 01:51:29;;;;;;;9.80;2.25;;;13.70;45.70;;;;;;5093681;28;20515;-63
2021/12/09 01:53:54;;;;;;;3.03;1.00;;;14.00;45.50;;;;;;5093647;28;20039;-62
2021/12/09 01:56:25;;;;;;;2.63;1.15;;;14.20;44.70;;;;;;5093768;28;20039;-62
2021/12/09 01:58:55;;;;;;;3.65;1.10;;;14.60;44.10;;;;;;5092269;28;20082;-63
2021/12/09 02:01:21;;;;;;;3.38;1.38;;;15.00;43.40;;;;;;5092471;28;20042;-63
2021/12/09 02:03:47;;;;;;;3.30;1.33;;;15.40;42.70;;;;;;5092470;28;20495;-63
2021/12/09 02:06:13;;;;;;;5.53;1.08;;;15.70;42.00;;;;;;5093854;28;20046;-62
2021/12/09 02:08:40;;;;;;;4.43;0.88;;;16.10;41.40;;;;;;5093334;28;20054;-62
2021/12/09 02:11:06;;;;;;;4.47;1.10;;;16.40;40.80;;;;;;5093531;28;20032;-63
2021/12/09 02:13:32;;;;;;;2.22;1.23;;;16.70;40.30;;;;;;5093334;28;20384;-63
2021/12/09 02:15:58;;;;;;;4.07;1.30;;;16.90;39.80;;;;;;5093351;28;20043;-63
2021/12/09 02:18:24;;;;;;;3.80;0.95;;;17.10;39.40;;;;;;5093270;28;20028;-63
2021/12/09 02:23:54;;;;;;;3.72;1.10;;;17.40;38.70;;;;;;5130273;27;20354;-62
2021/12/09 02:26:25;;;;;;;2.90;0.80;;;17.60;38.40;;;;;;5128997;28;20069;-62
2021/12/09 02:28:52;;;;;;;;;;;17.70;38.10;;;;;;5129287;28;20052;-63
2021/12/09 02:31:18;;;;;;;3.22;1.17;;;17.90;38.10;;;;;;5146386;27;19915;-62
2021/12/09 02:33:44;;;;;;;2.38;0.95;;;18.00;37.70;;;;;;5128913;28;20062;-63
2021/12/09 02:36:13;;;;;;;3.17;1.23;;;18.00;37.40;;;;;;5128727;28;20043;-62
2021/12/09 02:38:44;;;;;;;3.03;1.20;;;18.10;37.40;;;;;;5128923;28;20047;-63
2021/12/09 02:41:16;;;;;;;3.13;1.05;;;18.00;37.20;;;;;;5128663;28;20043;-63
2021/12/09 02:43:44;;;;;;;3.50;1.00;;;18.10;37.30;;;;;;5129885;27;20035;-63
2021/12/09 02:46:10;;;;;;;1.60;0.80;;;18.10;37.30;;;;;;5129770;27;20069;-63
2021/12/09 02:48:36;;;;;;;1.40;0.77;;;18.00;37.50;;;;;;5128688;27;20503;-63
2021/12/09 02:51:04;;;;;;;4.25;1.75;;;18.00;37.30;;;;;;5128455;28;20620;-63
2021/12/09 02:53:34;;;;;;;6.47;0.80;;;17.90;37.40;;;;;;5129778;27;20035;-63
2021/12/09 02:56:04;;;;;;;2.90;1.15;;;17.80;37.40;;;;;;5128460;27;20120;-63
2021/12/09 02:58:30;;;;;;;2.28;1.17;;;17.70;37.50;;;;;;5128569;28;20513;-63
2021/12/09 03:03:50;;;;;;;5.63;1.25;;;17.60;37.60;;;;;;5089354;27;20397;-63
2021/12/09 03:06:18;;;;;;;1.60;0.77;;;17.50;37.90;;;;;;5087422;28;20047;-63
2021/12/09 03:08:44;;;;;;;3.92;1.55;;;17.40;38.00;;;;;;5088228;28;20068;-63
2021/12/09 03:11:14;;;;;;;2.47;1.15;;;17.40;38.00;;;;;;5088348;28;20044;-63
2021/12/09 03:13:42;;;;;;;2.63;0.90;;;17.30;38.20;;;;;;5087951;28;20072;-63
2021/12/09 03:16:08;;;;;;;4.07;1.05;;;17.20;38.40;;;;;;5087991;28;20041;-63
2021/12/09 03:18:55;;;;;;;4.25;1.20;;;17.20;38.40;;;;;;5086864;28;20028;-63
2021/12/09 03:21:30;;;;;;;3.10;1.48;;;17.10;38.50;;;;;;5087210;28;20384;-63
2021/12/09 03:23:57;;;;;;;1.77;1.23;;;17.10;38.50;;;;;;5086838;28;20059;-63
2021/12/09 03:26:31;;;;;;;3.22;1.17;;;17.10;38.50;;;;;;5089050;28;20032;-63
2021/12/09 03:28:59;;;;;;;2.90;1.13;;;17.10;38.30;;;;;;5087680;28;20051;-63
2021/12/09 03:31:25;;;;;;;4.93;1.40;;;17.20;38.20;;;;;;5087749;28;20055;-63
2021/12/09 03:33:51;;;;;;;2.40;1.20;;;17.30;38.90;;;;;;5087553;28;20048;-63
2021/12/09 03:36:17;;;;;;;2.00;0.85;;;17.40;38.00;;;;;;5087595;28;20051;-62
2021/12/09 03:38:43;;;;;;;2.33;0.80;;;17.40;37.90;;;;;;5087765;28;20127;-63
2021/12/09 03:41:09;;;;;;;3.47;1.27;;;17.50;37.70;;;;;;5088651;28;20040;-62
2021/12/09 03:43:35;;;;;;;2.05;1.42;;;17.60;37.60;;;;;;5087502;28;20036;-63
2021/12/09 03:46:01;;;;;;;3.78;1.30;;;17.60;37.40;;;;;;5087661;28;20084;-63
2021/12/09 03:48:29;;;;;;;3.78;1.40;;;17.70;37.30;;;;;;5088720;28;20036;-63
2021/12/09 03:50:56;;;;;;;3.10;1.00;;;17.80;37.30;;;;;;5087252;28;20036;-63
2021/12/09 03:53:22;;;;;;;2.38;0.93;;;17.70;37.10;;;;;;5087483;28;20043;-63
2021/12/09 03:55:49;;;;;;;3.25;1.48;;;17.70;37.20;;;;;;5088411;28;20054;-63
2021/12/09 03:58:16;;;;;;;1.95;1.02;;;17.70;37.30;;;;;;5087414;28;20090;-63
2021/12/09 04:00:43;;;;;;;2.33;1.40;;;17.60;37.30;;;;;;5087068;28;20052;-63
2021/12/09 04:03:09;;;;;;;2.28;0.90;;;17.50;37.30;;;;;;5088050;28;20525;-63
2021/12/09 04:05:36;;;;;;;3.97;1.33;;;17.50;37.40;;;;;;5087185;28;20086;-63
2021/12/09 04:08:04;;;;;;;3.72;1.10;;;17.40;37.60;;;;;;5086963;28;20495;-63
2021/12/09 04:10:31;;;;;;;2.78;1.30;;;17.30;37.70;;;;;;5087176;28;20051;-63
2021/12/09 04:12:58;;;;;;;2.60;1.08;;;17.20;37.90;;;;;;5084807;28;20515;-64
2021/12/09 04:15:24;;;;;;;4.43;1.45;;;17.20;37.90;;;;;;5073404;28;20502;-62
2021/12/09 04:17:52;;;;;;;3.17;1.20;;;17.10;38.00;;;;;;5073583;28;20075;-63
2021/12/09 04:20:20;;;;;;;3.15;1.33;;;17.00;38.00;;;;;;5074486;28;20056;-63
2021/12/09 04:22:49;;;;;;;4.63;1.40;;;17.00;38.00;;;;;;5073245;28;20051;-63
2021/12/09 04:25:17;;;;;;;3.03;0.82;;;17.00;38.10;;;;;;5074457;28;20095;-63
2021/12/09 04:27:44;;;;;;;3.20;1.85;;;17.00;38.10;;;;;;5073559;28;20459;-63
2021/12/09 04:30:11;;;;;;;2.85;1.20;;;17.00;38.00;;;;;;5074693;28;20089;-62
2021/12/09 04:32:37;;;;;;;4.25;1.40;;;17.10;37.90;;;;;;5074366;28;20143;-63
2021/12/09 04:35:03;;;;;;;3.85;1.50;;;17.10;37.90;;;;;;5074366;28;20075;-63
2021/12/09 04:37:29;;;;;;;4.22;1.40;;;17.20;37.70;;;;;;5072774;28;20051;-63
2021/12/09 04:39:54;;;;;;;2.67;1.10;;;17.20;37.60;;;;;;5072941;28;20044;-63
2021/12/09 04:42:20;;;;;;;3.40;1.40;;;17.30;37.50;;;;;;5072892;28;20047;-63
2021/12/09 04:44:49;;;;;;;4.35;1.77;;;17.30;37.40;;;;;;5073191;28;20063;-63
2021/12/09 04:47:17;;;;;;;3.22;1.58;;;17.40;37.40;;;;;;5072043;28;20507;-62
2021/12/09 04:49:43;;;;;;;3.35;1.38;;;17.40;37.40;;;;;;5072991;28;20489;-63
2021/12/09 04:52:09;;;;;;;4.10;1.65;;;17.40;37.30;;;;;;5073738;28;20115;-63
2021/12/09 04:54:37;;;;;;;3.25;1.63;;;17.40;37.30;;;;;;5073928;28;20075;-63
2021/12/09 04:57:05;;;;;;;3.70;1.70;;;17.40;37.20;;;;;;5074016;28;20553;-63
2021/12/09 04:59:31;;;;;;;4.97;1.27;;;17.40;37.20;;;;;;5073994;28;20458;-63
2021/12/09 05:01:57;;;;;;;4.07;1.15;;;17.30;37.30;;;;;;5073402;28;20049;-63
2021/12/09 05:04:22;;;;;;;2.65;1.20;;;17.30;37.30;;;;;;5073492;28;20503;-63
2021/12/09 05:06:48;;;;;;;4.03;1.40;;;17.30;37.30;;;;;;5073564;28;20037;-62
2021/12/09 05:09:18;;;;;;;2.53;1.05;;;17.20;37.40;;;;;;5073673;28;20253;-63
2021/12/09 05:14:24;;;;;;;3.53;1.30;;;17.20;37.60;;;;;;5130166;27;20350;-63
2021/12/09 05:16:53;;;;;;;2.35;1.20;;;17.10;37.60;;;;;;5129017;28;20535;-63
2021/12/09 05:19:20;;;;;;;4.28;1.65;;;17.10;37.60;;;;;;5128691;28;20051;-63
2021/12/09 05:21:46;;;;;;;3.97;1.55;;;17.00;37.60;;;;;;5130213;27;20371;-63
2021/12/09 05:24:14;;;;;;;3.25;1.63;;;17.00;37.60;;;;;;5128819;28;20061;-63
2021/12/09 05:26:46;;;;;;;3.40;2.05;;;17.00;37.60;;;;;;5128848;28;20470;-63
2021/12/09 05:29:13;;;;;;;2.92;1.25;;;17.00;37.60;;;;;;5128718;28;20040;-63
2021/12/09 05:32:11;;;;;;;3.80;1.60;;;16.90;37.70;;;;;;5130116;27;20035;-63
2021/12/09 05:34:25;;;;;;;3.80;1.40;;;16.90;37.80;;;;;;5128435;27;20499;-62
2021/12/09 05:36:51;;;;;;;2.10;1.10;;;16.90;37.70;;;;;;5128641;28;20074;-63
2021/12/09 05:39:18;;;;;;;3.85;1.55;;;17.00;37.80;;;;;;5128545;28;20529;-63
2021/12/09 05:41:45;;;;;;;3.45;1.92;;;17.00;37.70;;;;;;5128822;28;20043;-62
2021/12/09 05:44:12;;;;;;;2.30;1.40;;;17.00;37.60;;;;;;5129755;27;20110;-63
2021/12/09 05:46:41;;;;;;;4.28;1.50;;;17.10;37.50;;;;;;5128466;28;20043;-62
2021/12/09 05:49:08;;;;;;;2.92;1.38;;;17.10;37.40;;;;;;5129531;27;20039;-63
2021/12/09 05:51:39;;;;;;;1.75;1.02;;;17.10;37.40;;;;;;5129681;27;20039;-63
2021/12/09 05:54:07;;;;;;;3.55;1.45;;;17.10;37.40;;;;;;5128197;28;20051;-62
2021/12/09 05:56:33;;;;;;;4.13;1.20;;;17.00;37.30;;;;;;5129621;27;20429;-63
2021/12/09 05:58:59;;;;;;;4.55;1.67;;;17.00;37.40;;;;;;5128390;28;20040;-63
2021/12/09 06:01:25;;;;;;;4.07;1.77;;;17.00;37.40;;;;;;5129410;27;20470;-63
2021/12/09 06:03:51;;;;;;;4.93;1.60;;;17.00;37.50;;;;;;5127894;27;20047;-63
2021/12/09 06:06:17;;;;;;;3.65;1.60;;;17.00;37.50;;;;;;5129558;27;20126;-63
2021/12/09 06:08:46;;;;;;;3.45;1.73;;;16.90;37.50;;;;;;5128281;28;20057;-63
2021/12/09 06:11:12;;;;;;;2.60;1.38;;;16.90;37.50;;;;;;5129380;27;20457;-63
2021/12/09 06:13:41;;;;;;;4.40;1.60;;;16.90;37.60;;;;;;5127579;28;20047;-63
2021/12/09 06:16:08;;;;;;;3.97;1.60;;;16.90;37.60;;;;;;5126089;28;20777;-63
2021/12/09 06:18:34;;;;;;;4.60;1.10;;;16.80;37.60;;;;;;5126062;28;20350;-63
2021/12/09 06:20:59;;;;;;;3.83;1.30;;;16.80;37.60;;;;;;5126895;28;20122;-65
2021/12/09 06:23:25;;;;;;;3.65;1.70;;;16.80;37.70;;;;;;5129000;27;20596;-64
2021/12/09 06:25:51;;;;;;;2.45;1.02;;;16.70;38.00;;;;;;5112710;28;20126;-65
2021/12/09 06:28:17;;;;;;;4.82;1.73;;;16.70;38.80;;;;;;5113594;28;20039;-64
2021/12/09 06:30:44;;;;;;;3.50;1.25;;;16.70;39.10;;;;;;5112546;28;20474;-63
2021/12/09 06:33:09;;;;;;;3.10;1.58;;;16.70;39.40;;;;;;5111593;28;20054;-64
2021/12/09 06:35:35;;;;;;;3.60;1.33;;;16.60;39.60;;;;;;5112350;28;20035;-64
2021/12/09 06:38:02;;;;;;;2.72;1.08;;;16.50;39.90;;;;;;5113607;28;20073;-64
2021/12/09 06:40:28;;;;;;;3.00;1.60;;;16.50;40.20;;;;;;5112683;28;20122;-64
2021/12/09 06:42:54;;;;;;;2.95;1.23;;;16.50;40.40;;;;;;5113011;28;20116;-65
2021/12/09 06:45:22;;;;;;;1.98;1.08;;;16.40;40.50;;;;;;5108843;28;20086;-65
2021/12/09 06:47:49;;;;;;;2.00;1.20;;;16.50;40.60;;;;;;5107968;28;20047;-64
2021/12/09 06:50:17;;;;;;;3.38;1.77;;;16.50;40.70;;;;;;5113447;28;20036;-65
2021/12/09 06:52:43;;;;;;;5.22;1.77;;;16.50;40.70;;;;;;5113666;28;20414;-64
2021/12/09 06:55:11;;;;;;;4.32;2.00;;;16.60;40.30;;;;;;5113147;28;20123;-65
2021/12/09 06:57:43;;;;;;;5.40;1.90;;;16.80;39.60;;;;;;5112366;28;20046;-65
2021/12/09 07:00:15;;;;;;;5.72;1.67;;;16.90;39.10;;;;;;5107740;28;20504;-65
2021/12/09 07:02:44;;;;;;;4.38;1.63;;;17.00;38.40;;;;;;5117181;27;20047;-66
2021/12/09 07:05:13;;;;;;;5.65;1.90;;;17.20;38.30;;;;;;5110658;28;20036;-62
2021/12/09 07:07:39;;;;;;;6.30;1.40;;;17.40;38.20;;;;;;5110356;28;20512;-62
2021/12/09 07:10:08;;;;;;;7.10;1.77;;;17.50;38.10;;;;;;5106717;28;20032;-63
2021/12/09 07:12:35;;;;;;;2.38;0.98;;;17.70;38.20;;;;;;5104431;28;20055;-63
2021/12/09 07:15:03;;;;;;;7.25;1.77;;;17.90;38.00;;;;;;5106637;28;20051;-64
2021/12/09 07:17:29;;;;;;;9.70;1.80;;;18.00;37.70;;;;;;5098633;28;20053;-64
2021/12/09 07:19:54;;;;;;;2.33;1.10;;;18.10;37.70;;;;;;5098310;28;20126;-63
2021/12/09 07:22:20;;;;;;;3.10;1.08;;;18.10;37.70;;;;;;5102033;28;20039;-63
2021/12/09 07:24:46;;;;;;;3.13;1.20;;;18.10;37.80;;;;;;5103615;28;20020;-64
2021/12/09 07:27:14;;;;;;;6.63;0.55;;;18.00;37.70;;;;;;5094763;28;20074;-63
2021/12/09 07:29:40;;;;;;;3.45;1.45;;;17.90;38.20;;;;;;5103037;27;20152;-64
2021/12/09 07:32:06;;;;;;;4.10;2.03;;;17.90;38.00;;;;;;5105331;28;20027;-64
2021/12/09 07:34:35;;;;;;;4.97;1.40;;;18.10;37.60;;;;;;5105448;28;20042;-63
2021/12/09 07:37:04;;;;;;;3.78;1.40;;;18.10;37.10;;;;;;5105334;28;20444;-63
2021/12/09 07:39:31;;;;;;;5.45;2.85;;;18.20;36.90;;;;;;5104583;28;20043;-64
2021/12/09 07:41:56;;;;;;;8.60;2.17;;;18.30;36.50;;;;;;5104501;28;20093;-63
2021/12/09 07:44:23;;;;;;;6.47;1.50;;;18.40;36.30;;;;;;5106907;28;20047;-63
2021/12/09 07:46:49;;;;;;;8.77;1.40;;;18.40;36.10;;;;;;5106830;28;20059;-64
2021/12/09 07:49:15;;;;;;;4.45;1.75;;;18.80;36.10;;;;;;5091900;27;20044;-65
2021/12/09 07:51:41;;;;;;;4.15;2.13;;;18.90;35.10;;;;;;5097638;28;20031;-65
2021/12/09 07:54:07;;;;;;;6.03;2.03;;;18.90;34.90;;;;;;5095834;28;20054;-65
2021/12/09 07:56:33;;;;;;;5.57;1.73;;;18.80;35.00;;;;;;5092337;28;20035;-65
2021/12/09 07:59:02;;;;;;;5.18;2.00;;;18.70;35.40;;;;;;5091114;28;20178;-68
2021/12/09 08:01:29;;;;;;;5.72;1.27;;;18.60;35.80;;;;;;5087702;27;20043;-68
2021/12/09 08:03:55;;;;;;;5.50;1.30;;;18.40;36.70;;;;;;5079903;28;20047;-66
2021/12/09 08:06:21;;;;;;;4.72;1.83;;;18.30;36.70;;;;;;5073521;28;20048;-66
2021/12/09 08:08:47;;;;;;;5.43;1.45;;;18.20;37.00;;;;;;5084937;27;20051;-66
2021/12/09 08:11:12;;;;;;;2.78;1.38;;;18.10;37.30;;;;;;5089866;28;20052;-66
2021/12/09 08:13:38;;;;;;;4.70;1.50;;;18.10;37.60;;;;;;5091407;28;20061;-67
2021/12/09 08:16:04;;;;;;;5.90;1.20;;;18.00;37.90;;;;;;5089706;28;20044;-64
2021/12/09 08:18:43;;;;;;;4.50;1.25;;;17.90;38.10;;;;;;5086874;28;20051;-64
2021/12/09 08:21:08;;;;;;;6.40;1.67;;;17.80;38.20;;;;;;5091529;28;20085;-67
2021/12/09 08:23:34;;;;;;;3.92;1.85;;;17.80;38.30;;;;;;5110985;27;20482;-66
2021/12/09 08:26:00;;;;;;;5.32;1.60;;;17.60;38.70;;;;;;5087486;28;20036;-66
2021/12/09 08:28:26;;;;;;;5.28;1.83;;;17.60;39.10;;;;;;5086427;28;20055;-65
2021/12/09 08:30:52;;;;;;;5.65;1.40;;;17.40;39.20;;;;;;5083136;28;20040;-66
2021/12/09 08:33:21;;;;;;;7.70;2.40;;;17.30;39.50;;;;;;5101799;27;20080;-65
2021/12/09 08:35:47;;;;;;;6.68;1.23;;;17.20;39.60;;;;;;5089834;28;20083;-65
2021/12/09 08:38:13;;;;;;;6.75;1.40;;;17.10;40.00;;;;;;5082039;27;20671;-66
2021/12/09 08:40:42;;;;;;;5.25;2.05;;;17.00;40.40;;;;;;5076416;28;20051;-65
2021/12/09 08:43:08;;;;;;;8.50;1.15;;;16.80;40.50;;;;;;5085171;28;20040;-66
2021/12/09 08:45:34;;;;;;;4.80;1.25;;;16.80;41.50;;;;;;5086174;27;20047;-64
2021/12/09 08:48:00;;;;;;;7.60;1.55;;;16.80;42.00;;;;;;5087848;28;20093;-65
2021/12/09 08:50:32;;;;;;;4.22;1.95;;;16.90;41.50;;;;;;5086350;28;20055;-65
2021/12/09 08:52:58;;;;;;;3.20;1.50;;;16.90;40.70;;;;;;5088293;28;20200;-63
2021/12/09 08:55:24;;;;;;;4.43;2.38;;;16.90;40.40;;;;;;5089665;28;20191;-65
2021/12/09 08:57:50;;;;;;;5.97;1.40;;;16.80;40.50;;;;;;5092133;28;20050;-66
2021/12/09 09:00:17;;;;;;;5.85;1.73;;;16.70;40.80;;;;;;5085394;28;20112;-66
2021/12/09 09:02:45;;;;;;;4.70;1.83;;;16.70;41.10;;;;;;5081723;28;20049;-64
2021/12/09 09:05:13;;;;;;;6.57;1.98;;;16.70;41.30;;;;;;5083513;28;20110;-66
2021/12/09 09:07:41;;;;;;;2.90;1.02;;;16.70;41.40;;;;;;5084216;28;20052;-66
2021/12/09 09:10:11;;;;;;;4.15;1.25;;;16.70;41.60;;;;;;5092769;28;20031;-66
2021/12/09 09:12:37;;;;;;;7.00;1.73;;;16.70;41.60;;;;;;5093268;28;20059;-65
2021/12/09 09:15:06;;;;;;;3.83;1.30;;;16.70;41.60;;;;;;5090217;28;20071;-65
2021/12/09 09:17:32;;;;;;;6.30;1.10;;;16.70;42.00;;;;;;5093537;28;20069;-67
2021/12/09 09:19:57;;;;;;;6.28;1.70;;;16.80;42.40;;;;;;5106531;27;20047;-65
2021/12/09 09:22:23;;;;;;;4.75;2.20;;;16.90;42.40;;;;;;5089557;28;20129;-66
2021/12/09 09:24:48;;;;;;;5.15;1.75;;;17.00;41.60;;;;;;5093599;28;20388;-66
2021/12/09 09:27:14;;;;;;;4.72;1.27;;;17.10;41.00;;;;;;5095434;28;20032;-67
2021/12/09 09:29:41;;;;;;;6.85;1.10;;;17.10;41.70;;;;;;5087750;28;20036;-68
2021/12/09 09:32:10;;;;;;;5.30;1.52;;;17.20;41.30;;;;;;5090755;28;20028;-66
2021/12/09 09:34:37;;;;;;;5.43;1.25;;;17.20;40.90;;;;;;5086225;28;20040;-67
2021/12/09 09:37:04;;;;;;;4.65;1.08;;;17.30;40.60;;;;;;5108347;28;20051;-64
2021/12/09 09:39:31;;;;;;;5.32;1.60;;;17.40;40.70;;;;;;5087126;28;20032;-64
2021/12/09 09:42:17;;;;;;;8.75;1.35;;;17.50;40.20;;;;;;5088249;28;20036;-64
2021/12/09 09:44:54;;;;;;;8.45;1.25;;;17.60;40.00;;;;;;5092016;28;20032;-67
2021/12/09 09:47:21;;;;;;;3.55;1.15;;;17.70;40.00;;;;;;5091473;28;20035;-68
2021/12/09 09:49:48;;;;;;;9.75;1.50;;;17.70;39.70;;;;;;5095823;28;20097;-68
2021/12/09 09:52:14;;;;;;;7.47;1.63;;;17.90;39.50;;;;;;5104554;28;20031;-66
2021/12/09 09:54:40;;;;;;;3.25;1.10;;;18.00;39.30;;;;;;5092614;28;20042;-65
2021/12/09 09:57:10;;;;;;;4.85;1.58;;;18.10;38.80;;;;;;5097595;28;20050;-64
2021/12/09 09:59:42;;;;;;;9.98;1.75;;;18.20;38.40;;;;;;5093420;28;20131;-67
2021/12/09 10:02:09;;;;;;;5.15;1.30;;;18.40;38.40;;;;;;5087140;27;20036;-67
2021/12/09 10:04:59;;;;;;;6.25;1.23;;;18.40;37.60;;;;;;5103923;27;20150;-65
2021/12/09 10:07:22;;;;;;;7.00;1.50;;;18.40;37.50;;;;;;5089973;28;20036;-65
2021/12/09 10:09:49;;;;;;;4.63;1.00;;;18.30;37.50;;;;;;5091541;28;20055;-67
2021/12/09 10:12:15;;;;;;;7.03;1.77;;;18.30;37.80;;;;;;5094754;28;20066;-66
2021/12/09 10:14:49;;;;;;;6.38;1.00;;;18.20;37.90;;;;;;5100724;28;20047;-65
2021/12/09 10:17:18;;;;;;;3.75;1.20;;;18.20;38.20;;;;;;5097676;27;20035;-64
2021/12/09 10:22:34;;;;;;;6.35;1.13;;;18.10;38.40;;;;;;5083169;27;20417;-64
2021/12/09 10:25:14;;;;;;;6.85;1.02;;;17.90;39.40;;;;;;5054852;28;20610;-66
2021/12/09 10:27:45;;;;;;;11.90;1.80;;;17.90;39.80;;;;;;5053374;28;20040;-66
2021/12/09 10:33:00;;;;;;;7.47;1.13;;;18.00;40.10;;;;;;5121298;27;20348;-64
2021/12/09 10:35:26;;;;;;;5.63;1.30;;;18.10;40.40;;;;;;5118905;28;20055;-65
2021/12/09 10:37:52;;;;;;;4.85;1.50;;;18.10;40.80;;;;;;5088060;28;20084;-64
2021/12/09 10:40:21;;;;;;;5.20;1.70;;;18.10;40.70;;;;;;5093326;28;20051;-65
2021/12/09 10:45:32;;;;;;;6.22;1.00;;;18.20;40.60;;;;;;5061317;27;20457;-65
2021/12/09 10:48:06;;;;;;;7.90;1.80;;;18.10;41.10;;;;;;5052438;28;20052;-65
2021/12/09 10:53:31;;;;;;;9.65;1.80;;;17.80;41.20;;;;;;5121363;27;1157130;-68
2021/12/09 10:58:41;;;;;;;4.22;0.93;;;17.50;41.70;;;;;;5054387;28;20501;-65
2021/12/09 11:01:10;;;;;;;9.10;2.10;;;17.30;42.10;;;;;;5034586;28;20792;-67
2021/12/09 11:08:57;;;;;;;5.32;1.38;;;17.30;42.60;;;;;;5073867;27;20438;-64
2021/12/09 11:16:56;;;;;;;6.15;0.95;;;17.30;41.90;;;;;;5056790;28;20384;-64
2021/12/09 11:19:35;;;;;;;5.20;1.10;;;17.30;42.70;;;;;;5059321;28;20040;-63
2021/12/09 11:22:06;;;;;;;4.78;1.00;;;17.50;42.80;;;;;;5038954;28;20114;-65
2021/12/09 11:24:37;;;;;;;5.50;1.20;;;17.60;42.70;;;;;;5041040;28;20142;-64
2021/12/09 11:27:08;;;;;;;2.70;1.23;;;17.70;42.30;;;;;;5044084;28;20452;-64
2021/12/09 11:29:43;;;;;;;5.82;0.85;;;17.80;41.80;;;;;;5034503;28;20667;-64
2021/12/09 11:32:17;;;;;;;10.32;1.42;;;17.80;41.90;;;;;;5040923;28;20115;-67
2021/12/09 11:34:53;;;;;;;8.88;1.33;;;17.90;41.70;;;;;;5045500;28;20044;-65
2021/12/09 11:37:37;;;;;;;5.40;2.22;;;17.90;41.40;;;;;;5042284;28;20029;-65
2021/12/09 11:42:51;;;;;;;9.13;1.75;;;17.80;40.80;;;;;;5132519;27;20102;-64
2021/12/09 11:45:21;;;;;;;11.80;2.20;;;17.80;40.60;;;;;;5135436;27;20043;-65
2021/12/09 11:47:49;;;;;;;5.07;2.08;;;17.80;40.80;;;;;;5117288;27;20690;-66
2021/12/09 11:50:20;;;;;;;6.72;2.22;;;17.80;40.80;;;;;;5124820;27;20457;-65
2021/12/09 11:52:46;;;;;;;6.45;1.63;;;17.80;40.30;;;;;;5118340;27;20039;-66
2021/12/09 11:55:16;;;;;;;5.15;2.30;;;17.80;40.00;;;;;;5134744;27;20043;-67
2021/12/09 11:57:50;;;;;;;5.63;1.45;;;17.80;39.60;;;;;;5139676;27;20038;-66
2021/12/09 12:07:04;;;;;;;4.10;2.13;;;18.10;39.20;;;;;;5112644;27;20430;-64
2021/12/09 12:20:56;;;;;;;6.55;2.08;;;18.90;38.30;;;;;;5117001;27;20811;-63
2021/12/09 12:27:12;;;;;;;3.78;2.10;;;19.30;38.30;;;;;;5101628;27;20969;-64
2021/12/09 12:35:14;;;;;;;4.55;1.50;;;19.10;38.60;;;;;;5106346;27;20859;-63
2021/12/09 12:40:36;;;;;;;3.90;1.88;;;19.00;38.80;;;;;;5066414;28;20465;-64
2021/12/09 12:51:19;;;;;;;4.35;2.17;;;18.60;39.70;;;;;;5093753;27;20919;-64
2021/12/09 12:53:48;;;;;;;7.97;2.00;;;18.20;40.50;;;;;;5093730;28;20097;-69
2021/12/09 12:56:42;;;;;;;8.00;2.13;;;18.10;40.70;;;;;;5081232;28;20475;-66
2021/12/09 13:13:19;;;;;;;7.10;1.00;;;17.70;43.50;;;;;;5086175;27;20363;-65
2021/12/09 13:22:01;;;;;;;5.20;0.77;;;18.10;45.40;;;;;;5069705;28;20511;-63
2021/12/09 13:47:07;;;;;;;7.10;0.70;;;18.60;44.60;;;;;;5064496;28;20139;-68
2021/12/09 13:49:57;;;;;;;3.72;0.60;;;18.60;44.60;;;;;;5065230;28;20071;-68
2021/12/09 13:55:25;;;;;;;4.20;1.23;;;18.70;44.60;;;;;;5108621;27;1180146;-67
2021/12/09 13:57:57;;;;;;;5.00;1.00;;;18.80;44.80;;;;;;5102599;27;20137;-66
2021/12/09 14:11:24;;;;;;;4.13;0.60;;;18.80;45.70;;;;;;5058374;28;20424;-64
2021/12/09 14:13:58;;;;;;;7.07;0.90;;;18.80;44.10;;;;;;5077859;28;20041;-65
2021/12/09 14:21:53;;;;;;;5.47;0.85;;;18.60;43.80;;;;;;5117298;27;1164679;-66
2021/12/09 14:24:26;;;;;;;3.13;0.73;;;18.60;43.60;;;;;;5144248;27;20544;-68
2021/12/09 14:29:34;;;;;;;4.20;0.90;;;18.60;43.40;;;;;;5121734;27;20394;-67
2021/12/09 14:32:03;;;;;;;4.82;0.90;;;18.50;43.30;;;;;;5118752;28;20456;-65
2021/12/09 14:34:36;;;;;;;5.75;0.65;;;18.60;43.30;;;;;;5121671;28;20035;-66
2021/12/09 14:37:03;;;;;;;4.93;0.73;;;18.60;43.20;;;;;;5120479;28;20047;-66
2021/12/09 14:39:29;;;;;;;5.68;1.30;;;18.60;43.30;;;;;;5121209;28;20043;-66
2021/12/09 14:42:16;;;;;;;6.57;1.10;;;18.60;43.20;;;;;;5122957;28;20063;-66
2021/12/09 14:44:59;;;;;;;4.25;0.88;;;18.70;43.40;;;;;;5123949;28;20537;-66
2021/12/09 14:47:26;;;;;;;8.80;0.70;;;18.70;43.40;;;;;;5121523;28;20582;-65
2021/12/09 14:50:02;;;;;;;6.03;0.85;;;18.80;43.50;;;;;;5118686;28;20028;-67
2021/12/09 14:52:34;;;;;;;8.80;0.80;;;18.80;43.40;;;;;;5122971;27;20035;-66
2021/12/09 14:55:22;;;;;;;2.75;0.60;;;18.80;43.50;;;;;;5123718;28;20043;-66
2021/12/09 15:00:59;;;;;;;6.95;1.25;;;18.80;43.50;;;;;;5085279;27;20394;-65
2021/12/09 15:03:51;;;;;;;8.38;1.08;;;19.00;43.60;;;;;;5082056;28;20051;-66
2021/12/09 15:06:24;;;;;;;7.20;0.88;;;18.90;43.60;;;;;;5081012;28;20077;-68
2021/12/09 15:08:58;;;;;;;5.20;0.90;;;18.90;43.60;;;;;;5082940;28;20676;-64
2021/12/09 15:11:24;;;;;;;8.20;1.05;;;18.90;43.90;;;;;;5079232;28;20040;-64
2021/12/09 15:13:54;;;;;;;5.80;0.80;;;18.90;44.10;;;;;;5082238;28;20516;-65
2021/12/09 15:16:26;;;;;;;3.10;0.63;;;18.90;44.00;;;;;;5081746;28;20080;-64